sensor_id;sensor_type;location;lat;lon;timestamp;pressure;altitude;pressure_sealevel;temperature;humidity
14232;BME280;7200;52.194;9.900;2023-02-10T00:00:42;101826.38;;;2.65;100.00
14232;BME280;7200;52.194;9.900;2023-02-10T00:03:07;101821.06;;;2.59;100.00
14232;BME280;7200;52.194;9.900;2023-02-10T00:05:32;101831.41;;;2.56;100.00
14232;BME280;7200;52.194;9.900;2023-02-10T00:07:57;101855.81;;;2.59;100.00
14232;BME280;7200;52.194;9.900;2023-02-10T00:10:23;101853.13;;;2.56;100.00
14232;BME280;7200;52.194;9.900;2023-02-10T00:12:48;101872.34;;;2.61;100.00
14232;BME280;7200;52.194;9.900;2023-02-10T00:15:13;101877.75;;;2.70;100.00
14232;BME280;7200;52.194;9.900;2023-02-10T00:17:39;101883.88;;;2.74;100.00
14232;BME280;7200;52.194;9.900;2023-02-10T00:20:04;101873.31;;;2.66;100.00
14232;BME280;7200;52.194;9.900;2023-02-10T00:22:30;101878.47;;;2.63;100.00
14232;BME280;7200;52.194;9.900;2023-02-10T00:24:55;101872.16;;;2.52;100.00
14232;BME280;7200;52.194;9.900;2023-02-10T00:27:20;101881.00;;;2.59;100.00
14232;BME280;7200;52.194;9.900;2023-02-10T00:29:49;101901.16;;;2.69;100.00
14232;BME280;7200;52.194;9.900;2023-02-10T00:32:14;101891.53;;;2.65;100.00
14232;BME280;7200;52.194;9.900;2023-02-10T00:34:41;101901.13;;;2.67;100.00
14232;BME280;7200;52.194;9.900;2023-02-10T00:37:06;101885.34;;;2.58;100.00
14232;BME280;7200;52.194;9.900;2023-02-10T00:39:31;101903.63;;;2.61;100.00
14232;BME280;7200;52.194;9.900;2023-02-10T00:41:56;101906.19;;;2.60;100.00
14232;BME280;7200;52.194;9.900;2023-02-10T00:44:22;101906.19;;;2.60;100.00
14232;BME280;7200;52.194;9.900;2023-02-10T00:46:47;101889.50;;;2.50;100.00
14232;BME280;7200;52.194;9.900;2023-02-10T00:49:12;101900.78;;;2.49;100.00
14232;BME280;7200;52.194;9.900;2023-02-10T00:51:38;101905.16;;;2.51;100.00
14232;BME280;7200;52.194;9.900;2023-02-10T00:54:03;101911.16;;;2.47;100.00
14232;BME280;7200;52.194;9.900;2023-02-10T00:56:28;101913.81;;;2.49;100.00
14232;BME280;7200;52.194;9.900;2023-02-10T00:58:53;101936.53;;;2.58;100.00
14232;BME280;7200;52.194;9.900;2023-02-10T01:01:19;101934.81;;;2.57;100.00
14232;BME280;7200;52.194;9.900;2023-02-10T01:03:45;101941.75;;;2.58;100.00
14232;BME280;7200;52.194;9.900;2023-02-10T01:06:12;101947.88;;;2.58;100.00
14232;BME280;7200;52.194;9.900;2023-02-10T01:08:38;101948.63;;;2.54;100.00
14232;BME280;7200;52.194;9.900;2023-02-10T01:11:06;101944.25;;;2.51;100.00
14232;BME280;7200;52.194;9.900;2023-02-10T01:13:32;101953.00;;;2.55;100.00
14232;BME280;7200;52.194;9.900;2023-02-10T01:15:59;101952.97;;;2.53;100.00
14232;BME280;7200;52.194;9.900;2023-02-10T01:18:24;101945.84;;;2.46;100.00
14232;BME280;7200;52.194;9.900;2023-02-10T01:20:50;101954.63;;;2.50;100.00
14232;BME280;7200;52.194;9.900;2023-02-10T01:23:15;101966.00;;;2.53;100.00
14232;BME280;7200;52.194;9.900;2023-02-10T01:25:41;101979.09;;;2.57;100.00
14232;BME280;7200;52.194;9.900;2023-02-10T01:28:06;101966.03;;;2.55;100.00
14232;BME280;7200;52.194;9.900;2023-02-10T01:30:32;101979.81;;;2.49;100.00
14232;BME280;7200;52.194;9.900;2023-02-10T01:32:57;101972.91;;;2.51;100.00
14232;BME280;7200;52.194;9.900;2023-02-10T01:35:23;101976.31;;;2.50;100.00
14232;BME280;7200;52.194;9.900;2023-02-10T01:37:48;101998.03;;;2.49;100.00
14232;BME280;7200;52.194;9.900;2023-02-10T01:40:14;102008.50;;;2.51;100.00
14232;BME280;7200;52.194;9.900;2023-02-10T01:42:41;101982.19;;;2.40;100.00
14232;BME280;7200;52.194;9.900;2023-02-10T01:47:40;102005.69;;;2.42;100.00
14232;BME280;7200;52.194;9.900;2023-02-10T01:50:07;102012.75;;;2.47;100.00
14232;BME280;7200;52.194;9.900;2023-02-10T01:52:32;102014.56;;;2.51;100.00
14232;BME280;7200;52.194;9.900;2023-02-10T01:55:09;102012.78;;;2.49;100.00
14232;BME280;7200;52.194;9.900;2023-02-10T01:57:37;102011.09;;;2.51;100.00
14232;BME280;7200;52.194;9.900;2023-02-10T02:00:06;102011.94;;;2.50;100.00
14232;BME280;7200;52.194;9.900;2023-02-10T02:02:32;102012.78;;;2.49;100.00
14232;BME280;7200;52.194;9.900;2023-02-10T02:05:01;102012.75;;;2.47;100.00
14232;BME280;7200;52.194;9.900;2023-02-10T02:07:29;102009.19;;;2.44;100.00
14232;BME280;7200;52.194;9.900;2023-02-10T02:09:59;102016.19;;;2.46;100.00
14232;BME280;7200;52.194;9.900;2023-02-10T02:12:44;102028.50;;;2.53;100.00
14232;BME280;7200;52.194;9.900;2023-02-10T02:15:27;102014.38;;;2.42;100.00
14232;BME280;7200;52.194;9.900;2023-02-10T02:23:38;102042.31;;;2.49;100.00
14232;BME280;7200;52.194;9.900;2023-02-10T02:29:34;102057.91;;;2.48;100.00
14232;BME280;7200;52.194;9.900;2023-02-10T02:34:53;102053.34;;;2.38;100.00
14232;BME280;7200;52.194;9.900;2023-02-10T02:37:24;102063.97;;;2.47;100.00
14232;BME280;7200;52.194;9.900;2023-02-10T02:39:53;102057.91;;;2.48;100.00
14232;BME280;7200;52.194;9.900;2023-02-10T02:42:24;102063.13;;;2.48;100.00
14232;BME280;7200;52.194;9.900;2023-02-10T02:45:01;102056.16;;;2.47;100.00
14232;BME280;7200;52.194;9.900;2023-02-10T02:47:36;102059.53;;;2.43;100.00
14232;BME280;7200;52.194;9.900;2023-02-10T02:53:09;102072.66;;;2.47;100.00
14232;BME280;7200;52.194;9.900;2023-02-10T03:01:05;102060.47;;;2.46;100.00
14232;BME280;7200;52.194;9.900;2023-02-10T03:03:35;102041.88;;;2.31;100.00
14232;BME280;7200;52.194;9.900;2023-02-10T03:06:01;102070.84;;;2.43;100.00
14232;BME280;7200;52.194;9.900;2023-02-10T03:08:29;102064.50;;;2.33;100.00
14232;BME280;7200;52.194;9.900;2023-02-10T03:10:56;102071.53;;;2.36;100.00
14232;BME280;7200;52.194;9.900;2023-02-10T03:13:21;102073.09;;;2.29;100.00
14232;BME280;7200;52.194;9.900;2023-02-10T03:15:46;102070.59;;;2.32;100.00
14232;BME280;7200;52.194;9.900;2023-02-10T03:18:12;102073.16;;;2.31;100.00
14232;BME280;7200;52.194;9.900;2023-02-10T03:20:38;102053.88;;;2.23;100.00
14232;BME280;7200;52.194;9.900;2023-02-10T03:23:04;102064.19;;;2.20;100.00
14232;BME280;7200;52.194;9.900;2023-02-10T03:25:29;102075.66;;;2.28;100.00
14232;BME280;7200;52.194;9.900;2023-02-10T03:27:55;102064.22;;;2.21;100.00
14232;BME280;7200;52.194;9.900;2023-02-10T03:30:21;102070.31;;;2.22;100.00
14232;BME280;7200;52.194;9.900;2023-02-10T03:32:46;102068.66;;;2.25;100.00
14232;BME280;7200;52.194;9.900;2023-02-10T03:35:13;102084.22;;;2.22;100.00
14232;BME280;7200;52.194;9.900;2023-02-10T03:37:42;102066.66;;;2.13;100.00
14232;BME280;7200;52.194;9.900;2023-02-10T03:40:08;102076.97;;;2.10;100.00
14232;BME280;7200;52.194;9.900;2023-02-10T03:42:33;102091.09;;;2.20;100.00
14232;BME280;7200;52.194;9.900;2023-02-10T03:44:58;102094.63;;;2.21;100.00
14232;BME280;7200;52.194;9.900;2023-02-10T03:47:24;102092.97;;;2.26;100.00
14232;BME280;7200;52.194;9.900;2023-02-10T03:49:49;102085.16;;;2.24;100.00
14232;BME280;7200;52.194;9.900;2023-02-10T03:52:14;102096.50;;;2.26;100.00
14232;BME280;7200;52.194;9.900;2023-02-10T03:54:39;102093.88;;;2.26;100.00
14232;BME280;7200;52.194;9.900;2023-02-10T03:57:05;102095.72;;;2.30;100.00
14232;BME280;7200;52.194;9.900;2023-02-10T03:59:31;102086.94;;;2.27;100.00
14232;BME280;7200;52.194;9.900;2023-02-10T04:01:56;102097.44;;;2.31;100.00
14232;BME280;7200;52.194;9.900;2023-02-10T04:04:22;102093.91;;;2.28;100.00
14232;BME280;7200;52.194;9.900;2023-02-10T04:06:47;102095.75;;;2.32;100.00
14232;BME280;7200;52.194;9.900;2023-02-10T04:09:12;102099.31;;;2.37;100.00
14232;BME280;7200;52.194;9.900;2023-02-10T04:11:38;102104.63;;;2.40;100.00
14232;BME280;7200;52.194;9.900;2023-02-10T04:14:03;102109.78;;;2.39;100.00
14232;BME280;7200;52.194;9.900;2023-02-10T04:16:28;102107.31;;;2.43;100.00
14232;BME280;7200;52.194;9.900;2023-02-10T04:18:57;102120.41;;;2.46;100.00
14232;BME280;7200;52.194;9.900;2023-02-10T04:21:23;102099.41;;;2.40;100.00
14232;BME280;7200;52.194;9.900;2023-02-10T04:23:49;102109.25;;;2.52;100.00
14232;BME280;7200;52.194;9.900;2023-02-10T04:26:15;102096.16;;;2.49;100.00
14232;BME280;7200;52.194;9.900;2023-02-10T04:28:40;102101.28;;;2.46;100.00
14232;BME280;7200;52.194;9.900;2023-02-10T04:31:05;102106.50;;;2.46;100.00
14232;BME280;7200;52.194;9.900;2023-02-10T04:33:31;102114.50;;;2.53;100.00
14232;BME280;7200;52.194;9.900;2023-02-10T04:35:56;102096.22;;;2.52;100.00
14232;BME280;7200;52.194;9.900;2023-02-10T04:38:22;102104.94;;;2.52;100.00
14232;BME280;7200;52.194;9.900;2023-02-10T04:40:48;102105.91;;;2.58;100.00
14232;BME280;7200;52.194;9.900;2023-02-10T04:43:13;102107.72;;;2.62;100.00
14232;BME280;7200;52.194;9.900;2023-02-10T04:45:39;102103.41;;;2.62;100.00
14232;BME280;7200;52.194;9.900;2023-02-10T04:48:05;102105.28;;;2.68;100.00
14232;BME280;7200;52.194;9.900;2023-02-10T04:50:31;102082.41;;;2.55;100.00
14232;BME280;7200;52.194;9.900;2023-02-10T04:52:56;102099.06;;;2.63;100.00
14232;BME280;7200;52.194;9.900;2023-02-10T04:55:21;102085.13;;;2.61;100.00
14232;BME280;7200;52.194;9.900;2023-02-10T04:57:47;102094.78;;;2.65;100.00
14232;BME280;7200;52.194;9.900;2023-02-10T05:00:13;102098.19;;;2.62;100.00
14232;BME280;7200;52.194;9.900;2023-02-10T05:02:38;102077.97;;;2.52;100.00
14232;BME280;7200;52.194;9.900;2023-02-10T05:05:04;102085.00;;;2.55;100.00
14232;BME280;7200;52.194;9.900;2023-02-10T05:07:30;102087.75;;;2.61;100.00
14232;BME280;7200;52.194;9.900;2023-02-10T05:09:55;102084.22;;;2.59;100.00
14232;BME280;7200;52.194;9.900;2023-02-10T05:12:20;102099.91;;;2.62;100.00
14232;BME280;7200;52.194;9.900;2023-02-10T05:14:46;102108.59;;;2.61;100.00
14232;BME280;7200;52.194;9.900;2023-02-10T05:17:11;102107.75;;;2.63;100.00
14232;BME280;7200;52.194;9.900;2023-02-10T05:19:36;102103.25;;;2.55;100.00
14232;BME280;7200;52.194;9.900;2023-02-10T05:22:02;102105.09;;;2.60;100.00
14232;BME280;7200;52.194;9.900;2023-02-10T05:24:27;102110.22;;;2.57;100.00
14232;BME280;7200;52.194;9.900;2023-02-10T05:26:52;102121.69;;;2.65;100.00
14232;BME280;7200;52.194;9.900;2023-02-10T05:29:17;102117.22;;;2.58;100.00
14232;BME280;7200;52.194;9.900;2023-02-10T05:31:43;102119.00;;;2.61;100.00
14232;BME280;7200;52.194;9.900;2023-02-10T05:34:08;102116.44;;;2.62;100.00
14232;BME280;7200;52.194;9.900;2023-02-10T05:36:33;102132.28;;;2.71;100.00
14232;BME280;7200;52.194;9.900;2023-02-10T05:38:59;102130.53;;;2.70;100.00
14232;BME280;7200;52.194;9.900;2023-02-10T05:41:43;102122.59;;;2.66;100.00
14232;BME280;7200;52.194;9.900;2023-02-10T05:44:08;102140.94;;;2.70;100.00
14232;BME280;7200;52.194;9.900;2023-02-10T05:46:33;102142.63;;;2.68;100.00
14232;BME280;7200;52.194;9.900;2023-02-10T05:48:58;102141.84;;;2.72;100.00
14232;BME280;7200;52.194;9.900;2023-02-10T05:51:24;102125.13;;;2.63;100.00
14232;BME280;7200;52.194;9.900;2023-02-10T05:53:49;102140.06;;;2.70;100.00
14232;BME280;7200;52.194;9.900;2023-02-10T05:56:14;102139.13;;;2.66;100.00
14232;BME280;7200;52.194;9.900;2023-02-10T05:58:40;102140.84;;;2.67;100.00
14232;BME280;7200;52.194;9.900;2023-02-10T06:01:07;102146.97;;;2.68;100.00
14232;BME280;7200;52.194;9.900;2023-02-10T06:03:33;102139.94;;;2.64;100.00
14232;BME280;7200;52.194;9.900;2023-02-10T06:05:58;102161.84;;;2.72;100.00
14232;BME280;7200;52.194;9.900;2023-02-10T06:08:24;102154.84;;;2.69;100.00
14232;BME280;7200;52.194;9.900;2023-02-10T06:10:49;102168.84;;;2.75;100.00
14232;BME280;7200;52.194;9.900;2023-02-10T06:13:14;102163.56;;;2.71;100.00
14232;BME280;7200;52.194;9.900;2023-02-10T06:15:39;102181.03;;;2.76;100.00
14232;BME280;7200;52.194;9.900;2023-02-10T06:18:05;102170.53;;;2.72;100.00
14232;BME280;7200;52.194;9.900;2023-02-10T06:20:30;102172.34;;;2.75;100.00
14232;BME280;7200;52.194;9.900;2023-02-10T06:22:55;102176.69;;;2.76;100.00
14232;BME280;7200;52.194;9.900;2023-02-10T06:25:21;102178.44;;;2.76;100.00
14232;BME280;7200;52.194;9.900;2023-02-10T06:27:46;102168.78;;;2.71;100.00
14232;BME280;7200;52.194;9.900;2023-02-10T06:30:12;102189.81;;;2.79;100.00
14232;BME280;7200;52.194;9.900;2023-02-10T06:32:37;102172.22;;;2.70;100.00
14232;BME280;7200;52.194;9.900;2023-02-10T06:35:03;102171.22;;;2.65;100.00
14232;BME280;7200;52.194;9.900;2023-02-10T06:37:28;102185.09;;;2.64;100.00
14232;BME280;7200;52.194;9.900;2023-02-10T06:39:54;102200.78;;;2.67;100.00
14232;BME280;7200;52.194;9.900;2023-02-10T06:42:19;102192.78;;;2.58;100.00
14232;BME280;7200;52.194;9.900;2023-02-10T06:44:45;102213.81;;;2.66;100.00
14232;BME280;7200;52.194;9.900;2023-02-10T06:47:10;102213.78;;;2.64;100.00
14232;BME280;7200;52.194;9.900;2023-02-10T06:49:36;102217.16;;;2.62;100.00
14232;BME280;7200;52.194;9.900;2023-02-10T06:52:02;102224.88;;;2.57;100.00
14232;BME280;7200;52.194;9.900;2023-02-10T06:54:28;102225.75;;;2.58;100.00
14232;BME280;7200;52.194;9.900;2023-02-10T06:56:53;102221.25;;;2.52;100.00
14232;BME280;7200;52.194;9.900;2023-02-10T06:59:19;102213.31;;;2.46;100.00
14232;BME280;7200;52.194;9.900;2023-02-10T07:01:44;102232.50;;;2.49;100.00
14232;BME280;7200;52.194;9.900;2023-02-10T07:04:10;102229.69;;;2.42;100.00
14232;BME280;7200;52.194;9.900;2023-02-10T07:06:35;102244.66;;;2.49;100.00
14232;BME280;7200;52.194;9.900;2023-02-10T07:09:00;102243.50;;;2.39;100.00
14232;BME280;7200;52.194;9.900;2023-02-10T07:11:29;102244.38;;;2.38;100.00
14232;BME280;7200;52.194;9.900;2023-02-10T07:13:54;102249.56;;;2.38;100.00
14232;BME280;7200;52.194;9.900;2023-02-10T07:16:19;102255.75;;;2.42;100.00
14232;BME280;7200;52.194;9.900;2023-02-10T07:18:45;102263.66;;;2.46;100.00
14232;BME280;7200;52.194;9.900;2023-02-10T07:21:10;102260.97;;;2.42;100.00
14232;BME280;7200;52.194;9.900;2023-02-10T07:23:35;102273.38;;;2.52;100.00
14232;BME280;7200;52.194;9.900;2023-02-10T07:26:01;102255.81;;;2.45;100.00
14232;BME280;7200;52.194;9.900;2023-02-10T07:28:26;102257.63;;;2.47;100.00
14232;BME280;7200;52.194;9.900;2023-02-10T07:30:51;102273.31;;;2.49;100.00
14232;BME280;7200;52.194;9.900;2023-02-10T07:33:17;102276.03;;;2.53;100.00
14232;BME280;7200;52.194;9.900;2023-02-10T07:35:42;102273.38;;;2.52;100.00
14232;BME280;7200;52.194;9.900;2023-02-10T07:38:08;102287.47;;;2.59;100.00
14232;BME280;7200;52.194;9.900;2023-02-10T07:40:33;102289.09;;;2.55;100.00
14232;BME280;7200;52.194;9.900;2023-02-10T07:42:59;102277.00;;;2.57;100.00
14232;BME280;7200;52.194;9.900;2023-02-10T07:45:24;102287.56;;;2.63;100.00
14232;BME280;7200;52.194;9.900;2023-02-10T07:47:51;102301.66;;;2.70;100.00
14232;BME280;7200;52.194;9.900;2023-02-10T07:50:17;102302.56;;;2.72;100.00
14232;BME280;7200;52.194;9.900;2023-02-10T07:52:42;102303.56;;;2.77;100.00
14232;BME280;7200;52.194;9.900;2023-02-10T07:55:09;102304.56;;;2.82;100.00
14232;BME280;7200;52.194;9.900;2023-02-10T07:57:34;102304.69;;;2.87;100.00
14232;BME280;7200;52.194;9.900;2023-02-10T07:59:59;102300.22;;;2.81;100.00
14232;BME280;7200;52.194;9.900;2023-02-10T08:02:25;102298.75;;;2.92;100.00
14232;BME280;7200;52.194;9.900;2023-02-10T08:04:50;102297.00;;;2.93;100.00
14232;BME280;7200;52.194;9.900;2023-02-10T08:07:19;102287.34;;;2.89;100.00
14232;BME280;7200;52.194;9.900;2023-02-10T08:09:44;102297.06;;;2.95;100.00
14232;BME280;7200;52.194;9.900;2023-02-10T08:12:09;102306.53;;;2.91;100.00
14232;BME280;7200;52.194;9.900;2023-02-10T08:14:35;102297.88;;;2.93;100.00
14232;BME280;7200;52.194;9.900;2023-02-10T08:17:00;102318.03;;;2.99;100.00
14232;BME280;7200;52.194;9.900;2023-02-10T08:19:25;102313.84;;;3.06;100.00
14232;BME280;7200;52.194;9.900;2023-02-10T08:21:50;102295.41;;;2.98;100.00
14232;BME280;7200;52.194;9.900;2023-02-10T08:24:16;102303.34;;;3.03;100.00
14232;BME280;7200;52.194;9.900;2023-02-10T08:26:41;102318.44;;;3.15;100.00
14232;BME280;7200;52.194;9.900;2023-02-10T08:29:07;102319.31;;;3.15;100.00
14232;BME280;7200;52.194;9.900;2023-02-10T08:31:32;102317.47;;;3.11;100.00
14232;BME280;7200;52.194;9.900;2023-02-10T08:33:57;102309.56;;;3.08;100.00
14232;BME280;7200;52.194;9.900;2023-02-10T08:36:23;102311.38;;;3.12;100.00
14232;BME280;7200;52.194;9.900;2023-02-10T08:38:49;102325.28;;;3.11;100.00
14232;BME280;7200;52.194;9.900;2023-02-10T08:41:16;102339.72;;;3.31;100.00
14232;BME280;7200;52.194;9.900;2023-02-10T08:43:42;102323.09;;;3.29;100.00
14232;BME280;7200;52.194;9.900;2023-02-10T08:46:07;102337.31;;;3.42;100.00
14232;BME280;7200;52.194;9.900;2023-02-10T08:48:33;102331.19;;;3.40;100.00
14232;BME280;7200;52.194;9.900;2023-02-10T08:50:59;102346.16;;;3.47;100.00
14232;BME280;7200;52.194;9.900;2023-02-10T08:53:25;102341.06;;;3.54;100.00
14232;BME280;7200;52.194;9.900;2023-02-10T08:56:01;102342.91;;;3.56;100.00
14232;BME280;7200;52.194;9.900;2023-02-10T08:58:28;102347.38;;;3.62;100.00
14232;BME280;7200;52.194;9.900;2023-02-10T09:00:53;102330.72;;;3.57;100.00
14232;BME280;7200;52.194;9.900;2023-02-10T09:03:19;102331.72;;;3.62;100.00
14232;BME280;7200;52.194;9.900;2023-02-10T09:05:44;102327.41;;;3.64;100.00
14232;BME280;7200;52.194;9.900;2023-02-10T09:08:14;102327.41;;;3.65;100.00
14232;BME280;7200;52.194;9.900;2023-02-10T09:10:40;102329.34;;;3.74;100.00
14232;BME280;7200;52.194;9.900;2023-02-10T09:13:06;102334.50;;;3.71;100.00
14232;BME280;7200;52.194;9.900;2023-02-10T09:15:36;102337.34;;;3.82;100.00
14232;BME280;7200;52.194;9.900;2023-02-10T09:18:01;102341.84;;;3.87;100.00
14232;BME280;7200;52.194;9.900;2023-02-10T09:20:27;102324.22;;;3.77;100.00
14232;BME280;7200;52.194;9.900;2023-02-10T09:22:52;102326.78;;;3.76;100.00
14232;BME280;7200;52.194;9.900;2023-02-10T09:25:17;102339.31;;;3.90;100.00
14232;BME280;7200;52.194;9.900;2023-02-10T09:27:43;102329.56;;;3.83;100.00
14232;BME280;7200;52.194;9.900;2023-02-10T09:30:08;102338.16;;;3.78;100.00
14232;BME280;7200;52.194;9.900;2023-02-10T09:32:34;102338.22;;;3.82;100.00
14232;BME280;7200;52.194;9.900;2023-02-10T09:34:59;102344.34;;;3.83;100.00
14232;BME280;7200;52.194;9.900;2023-02-10T09:37:24;102352.41;;;3.92;100.00
14232;BME280;7200;52.194;9.900;2023-02-10T09:39:49;102355.97;;;3.96;100.00
14232;BME280;7200;52.194;9.900;2023-02-10T09:45:18;102346.22;;;3.88;100.00
14232;BME280;7200;52.194;9.900;2023-02-10T09:47:52;102362.22;;;4.04;100.00
14232;BME280;7200;52.194;9.900;2023-02-10T09:50:33;102351.56;;;3.95;100.00
14232;BME280;7200;52.194;9.900;2023-02-10T09:53:18;102368.28;;;4.03;100.00
14232;BME280;7200;52.194;9.900;2023-02-10T09:55:54;102351.50;;;3.92;100.00
14232;BME280;7200;52.194;9.900;2023-02-10T10:01:22;102355.09;;;3.97;100.00
14232;BME280;7200;52.194;9.900;2023-02-10T10:11:46;102368.56;;;4.15;100.00
14232;BME280;7200;52.194;9.900;2023-02-10T10:14:19;102361.53;;;4.13;100.00
14232;BME280;7200;52.194;9.900;2023-02-10T10:16:51;102338.69;;;4.02;100.00
14232;BME280;7200;52.194;9.900;2023-02-10T10:27:10;102331.34;;;3.84;100.00
14232;BME280;7200;52.194;9.900;2023-02-10T10:32:18;102356.84;;;3.96;100.00
14232;BME280;7200;52.194;9.900;2023-02-10T10:34:52;102365.88;;;4.12;100.00
14232;BME280;7200;52.194;9.900;2023-02-10T10:37:21;102350.91;;;4.03;100.00
14232;BME280;7200;52.194;9.900;2023-02-10T10:39:54;102350.00;;;4.03;100.00
14232;BME280;7200;52.194;9.900;2023-02-10T10:42:40;102371.16;;;4.15;100.00
14232;BME280;7200;52.194;9.900;2023-02-10T10:45:14;102363.44;;;4.21;100.00
14232;BME280;7200;52.194;9.900;2023-02-10T10:47:53;102354.75;;;4.21;100.00
14232;BME280;7200;52.194;9.900;2023-02-10T10:50:21;102339.84;;;4.17;100.00
14232;BME280;7200;52.194;9.900;2023-02-10T10:52:50;102331.81;;;4.07;100.00
14232;BME280;7200;52.194;9.900;2023-02-10T10:55:39;102313.47;;;4.04;100.00
14232;BME280;7200;52.194;9.900;2023-02-10T11:00:56;102316.38;;;4.20;100.00
14232;BME280;7200;52.194;9.900;2023-02-10T11:03:22;102312.91;;;4.19;100.00
14232;BME280;7200;52.194;9.900;2023-02-10T11:08:24;102295.31;;;4.10;100.00
14232;BME280;7200;52.194;9.900;2023-02-10T11:10:53;102293.63;;;4.13;100.00
14232;BME280;7200;52.194;9.900;2023-02-10T11:13:21;102306.72;;;4.16;100.00
14232;BME280;7200;52.194;9.900;2023-02-10T11:15:47;102310.47;;;4.28;100.00
14232;BME280;7200;52.194;9.900;2023-02-10T11:18:18;102294.63;;;4.19;100.00
14232;BME280;7200;52.194;9.900;2023-02-10T11:23:20;102291.97;;;4.18;100.00
14232;BME280;7200;52.194;9.900;2023-02-10T11:25:54;102272.56;;;4.03;100.00
14232;BME280;7200;52.194;9.900;2023-02-10T11:28:23;102308.66;;;4.24;100.00
14232;BME280;7200;52.194;9.900;2023-02-10T11:30:56;102330.88;;;4.46;100.00
14232;BME280;7200;52.194;9.900;2023-02-10T11:33:25;102325.03;;;4.61;100.00
14232;BME280;7200;52.194;9.900;2023-02-10T11:35:53;102302.19;;;4.51;100.00
14232;BME280;7200;52.194;9.900;2023-02-10T11:38:21;102315.50;;;4.63;100.00
14232;BME280;7200;52.194;9.900;2023-02-10T11:40:50;102295.47;;;4.64;100.00
14232;BME280;7200;52.194;9.900;2023-02-10T11:43:16;102326.47;;;4.93;100.00
14232;BME280;7200;52.194;9.900;2023-02-10T11:46:01;102281.94;;;4.88;100.00
14232;BME280;7200;52.194;9.900;2023-02-10T11:48:28;102284.72;;;4.99;100.00
14232;BME280;7200;52.194;9.900;2023-02-10T11:51:15;102290.22;;;5.16;100.00
14232;BME280;7200;52.194;9.900;2023-02-10T11:53:42;102256.84;;;5.01;100.00
14232;BME280;7200;52.194;9.900;2023-02-10T11:56:22;102294.91;;;5.35;100.00
14232;BME280;7200;52.194;9.900;2023-02-10T12:04:47;102223.56;;;5.52;100.00
14232;BME280;7200;52.194;9.900;2023-02-10T12:12:54;102171.72;;;5.23;100.00
14232;BME280;7200;52.194;9.900;2023-02-10T12:15:35;102173.50;;;5.24;100.00
14232;BME280;7200;52.194;9.900;2023-02-10T12:26:27;102200.94;;;5.55;100.00
14232;BME280;7200;52.194;9.900;2023-02-10T12:29:11;102208.16;;;5.75;100.00
14232;BME280;7200;52.194;9.900;2023-02-10T12:31:46;102224.22;;;6.01;100.00
14232;BME280;7200;52.194;9.900;2023-02-10T12:34:21;102181.16;;;5.82;100.00
14232;BME280;7200;52.194;9.900;2023-02-10T12:39:45;102134.59;;;5.55;100.00
14232;BME280;7200;52.194;9.900;2023-02-10T12:45:07;102141.91;;;5.83;100.00
14232;BME280;7200;52.194;9.900;2023-02-10T12:50:33;102135.94;;;5.97;100.00
14232;BME280;7200;52.194;9.900;2023-02-10T12:55:43;102132.50;;;6.02;100.00
14232;BME280;7200;52.194;9.900;2023-02-10T12:58:24;102106.28;;;5.98;100.00
14232;BME280;7200;52.194;9.900;2023-02-10T13:03:31;102090.31;;;5.75;100.00
14232;BME280;7200;52.194;9.900;2023-02-10T13:06:06;102113.19;;;5.93;100.00
14232;BME280;7200;52.194;9.900;2023-02-10T13:08:41;102121.28;;;6.13;100.00
14232;BME280;7200;52.194;9.900;2023-02-10T13:11:20;102158.34;;;6.59;100.00
14232;BME280;7200;52.194;9.900;2023-02-10T13:13:47;102061.09;;;6.25;100.00
14232;BME280;7200;52.194;9.900;2023-02-10T13:16:18;102056.66;;;6.19;100.00
14232;BME280;7200;52.194;9.900;2023-02-10T13:26:41;102014.47;;;5.89;100.00
14232;BME280;7200;52.194;9.900;2023-02-10T13:29:36;101993.25;;;5.56;100.00
14232;BME280;7200;52.194;9.900;2023-02-10T13:34:47;102013.41;;;5.63;100.00
14232;BME280;7200;52.194;9.900;2023-02-10T13:39:54;102025.81;;;5.84;100.00
14232;BME280;7200;52.194;9.900;2023-02-10T13:42:25;102013.56;;;5.83;100.00
14232;BME280;7200;52.194;9.900;2023-02-10T13:47:41;101960.19;;;5.68;100.00
14232;BME280;7200;52.194;9.900;2023-02-10T13:55:28;101965.31;;;5.55;100.00
14232;BME280;7200;52.194;9.900;2023-02-10T14:00:30;101973.22;;;5.60;100.00
14232;BME280;7200;52.194;9.900;2023-02-10T14:06:00;101951.22;;;5.42;100.00
14232;BME280;7200;52.194;9.900;2023-02-10T14:13:36;101937.25;;;5.40;100.00
14232;BME280;7200;52.194;9.900;2023-02-10T14:16:19;101916.28;;;5.36;100.00
14232;BME280;7200;52.194;9.900;2023-02-10T14:19:01;101918.91;;;5.37;100.00
14232;BME280;7200;52.194;9.900;2023-02-10T14:21:40;101895.34;;;5.36;100.00
14232;BME280;7200;52.194;9.900;2023-02-10T14:24:12;101889.25;;;5.38;100.00
14232;BME280;7200;52.194;9.900;2023-02-10T14:26:41;101876.97;;;5.33;100.00
14232;BME280;7200;52.194;9.900;2023-02-10T14:29:14;101873.53;;;5.37;100.00
14232;BME280;7200;52.194;9.900;2023-02-10T14:31:40;101867.44;;;5.38;100.00
14232;BME280;7200;52.194;9.900;2023-02-10T14:34:36;101864.84;;;5.39;100.00
14232;BME280;7200;52.194;9.900;2023-02-10T14:37:15;101854.34;;;5.38;100.00
14232;BME280;7200;52.194;9.900;2023-02-10T14:39:53;101846.47;;;5.32;100.00
14232;BME280;7200;52.194;9.900;2023-02-10T14:42:20;101868.34;;;5.41;100.00
14232;BME280;7200;52.194;9.900;2023-02-10T14:44:52;101862.22;;;5.42;100.00
14232;BME280;7200;52.194;9.900;2023-02-10T14:47:27;101864.91;;;5.47;100.00
14232;BME280;7200;52.194;9.900;2023-02-10T14:49:55;101860.50;;;5.41;100.00
14232;BME280;7200;52.194;9.900;2023-02-10T14:52:23;101873.69;;;5.55;100.00
14232;BME280;7200;52.194;9.900;2023-02-10T14:54:49;101841.34;;;5.47;100.00
14232;BME280;7200;52.194;9.900;2023-02-10T14:57:16;101839.56;;;5.46;100.00
14232;BME280;7200;52.194;9.900;2023-02-10T14:59:43;101861.50;;;5.60;100.00
14232;BME280;7200;52.194;9.900;2023-02-10T15:02:20;101838.78;;;5.55;100.00
14232;BME280;7200;52.194;9.900;2023-02-10T15:04:48;101820.44;;;5.55;100.00